Main page
METAR-TAF:

METAR-TAF

Airports :

Gwadar, Pakistan

Gwadar International Airport

latitude: 25-13-59N, longitude: 062-19-46E, elevation: 29 m

METAR: missing

Time: 22:15 (17:15 UTC)

Forecast

The report was made 13 hours and 45 minutes ago, at 03:30 UTC
Forecast valid from 26 at 06 UTC to 27 at 06 UTC
Wind 10 kt from the East/Southeast
Visibility: 4000 m
haze
Becoming
from 26 at 19 UTC to 26 at 21 UTC
Wind 5 kt from the Southeast
Scattered clouds at a height of 2000 ft
smoke
Becoming
from 27 at 00 UTC to 27 at 02 UTC
Wind kt from the North
Visibility: 3000 m
smoke

TAF: OPGD 260330Z 2606/2706 12010KT 4000 HZ NSC BECMG 2619/2621 13005KT FU SCT020 BECMG 2700/2702 00000KT 3000 FU NSC

Weather observations and forecasts of more than 4000 airports (METAR and TAF reports).

The available stations are represented by yellow and red dots on the map.

Hover mouse over dot to see the name of the station.

Then click to see weather observations and forecasts.

To change the map : click on the green buttons with a black cross to zoom in, on the green button with a dash to zoom out, or on the green arrows for adjacent maps.


METAR-TAF: